Time;durP1;ratioP1;P1;durP2;ratioP2;P2;SDS_P1;SDS_P2;PMS_P1;PMS_P2;Temp;Humidity;BMP_temperature;BMP_pressure;BME280_temperature;BME280_humidity;BME280_pressure;Samples;Min_cycle;Max_cycle;Signal;HPM_P1;HPM_P2
2021/11/03 00:02:10;;;;;;;22.00;15.90;;;;;;;;;;7392520;19;20030;-61
2021/11/03 00:04:39;;;;;;;24.42;16.15;;;;;;;;;;7392644;19;20013;-61
2021/11/03 00:07:10;;;;;;;21.50;14.90;;;;;;;;;;7392276;19;20024;-61
2021/11/03 00:09:38;;;;;;;21.83;16.20;;;;;;;;;;7390557;19;20017;-61
2021/11/03 00:12:10;;;;;;;22.08;15.75;;;;;;;;;;7392174;19;20035;-61
2021/11/03 00:14:38;;;;;;;20.92;15.50;;;;;;;;;;7393750;19;20074;-62
2021/11/03 00:17:06;;;;;;;31.75;17.45;;;;;;;;;;7392216;19;20531;-61
2021/11/03 00:19:34;;;;;;;21.90;15.85;;;;;;;;;;7392572;19;20003;-61
2021/11/03 00:22:01;;;;;;;24.83;16.75;;;;;;;;;;7391624;19;20035;-61
2021/11/03 00:24:29;;;;;;;24.75;15.93;;;;;;;;;;7392685;19;20014;-60
2021/11/03 00:26:56;;;;;;;22.17;15.02;;;;;;;;;;7392291;19;20015;-61
2021/11/03 00:29:23;;;;;;;20.77;14.85;;;;;;;;;;7391080;19;20038;-60
2021/11/03 00:31:50;;;;;;;23.65;15.50;;;;;;;;;;7392734;19;20010;-61
2021/11/03 00:34:18;;;;;;;18.73;14.45;;;;;;;;;;7391084;19;20018;-61
2021/11/03 00:36:45;;;;;;;25.00;15.27;;;;;;;;;;7390101;19;20010;-61
2021/11/03 00:39:13;;;;;;;21.33;15.30;;;;;;;;;;7392212;19;20086;-61
2021/11/03 00:41:40;;;;;;;21.98;15.07;;;;;;;;;;7390556;19;20031;-61
2021/11/03 00:44:08;;;;;;;20.65;14.82;;;;;;;;;;7390017;19;20041;-61
2021/11/03 00:46:36;;;;;;;21.58;15.38;;;;;;;;;;7389817;19;20085;-61
2021/11/03 00:49:04;;;;;;;21.60;15.48;;;;;;;;;;7389861;19;20014;-61
2021/11/03 00:51:32;;;;;;;19.73;14.98;;;;;;;;;;7388596;19;20030;-60
2021/11/03 00:54:00;;;;;;;22.88;15.52;;;;;;;;;;7391058;19;20011;-61
2021/11/03 00:56:28;;;;;;;19.27;14.93;;;;;;;;;;7391988;19;20017;-61
2021/11/03 00:58:56;;;;;;;22.08;15.02;;;;;;;;;;7392670;19;20007;-60
2021/11/03 01:01:24;;;;;;;22.45;15.32;;;;;;;;;;7392743;19;20014;-61
2021/11/03 01:03:52;;;;;;;19.55;14.95;;;;;;;;;;7393876;19;20003;-60
2021/11/03 01:06:19;;;;;;;24.65;14.90;;;;;;;;;;7392941;19;20010;-62
2021/11/03 01:08:47;;;;;;;22.40;15.18;;;;;;;;;;7394504;19;20017;-61
2021/11/03 01:11:15;;;;;;;20.15;14.55;;;;;;;;;;7390914;19;20014;-61
2021/11/03 01:14:01;;;;;;;20.17;15.35;;;;;;;;;;7393845;19;20014;-61
2021/11/03 01:16:30;;;;;;;19.55;14.88;;;;;;;;;;7392917;19;20025;-61
2021/11/03 01:18:57;;;;;;;19.55;14.32;;;;;;;;;;7391219;19;20014;-60
2021/11/03 01:21:25;;;;;;;20.25;15.13;;;;;;;;;;7391157;19;20074;-61
2021/11/03 01:23:52;;;;;;;21.27;14.77;;;;;;;;;;7391198;19;20010;-60
2021/11/03 01:26:20;;;;;;;21.08;14.70;;;;;;;;;;7392640;19;20016;-60
2021/11/03 01:28:48;;;;;;;22.63;15.30;;;;;;;;;;7391665;19;20038;-61
2021/11/03 01:31:15;;;;;;;20.38;14.25;;;;;;;;;;7391871;19;20106;-61
2021/11/03 01:33:43;;;;;;;21.25;15.27;;;;;;;;;;7390426;19;20018;-61
2021/11/03 01:36:12;;;;;;;22.50;15.05;;;;;;;;;;7388888;19;20014;-61
2021/11/03 01:38:39;;;;;;;20.20;14.27;;;;;;;;;;7390613;19;20010;-60
2021/11/03 01:41:08;;;;;;;20.08;15.77;;;;;;;;;;7392433;19;20010;-61
2021/11/03 01:43:40;;;;;;;21.50;14.88;;;;;;;;;;7389932;19;20018;-61
2021/11/03 01:46:21;;;;;;;22.20;15.38;;;;;;;;;;7390553;19;20017;-61
2021/11/03 01:49:04;;;;;;;25.08;14.93;;;;;;;;;;7395725;19;20011;-61
2021/11/03 01:51:42;;;;;;;21.30;14.55;;;;;;;;;;7388331;19;20054;-61
2021/11/03 01:54:13;;;;;;;21.23;15.07;;;;;;;;;;7390763;19;20087;-61
2021/11/03 01:56:41;;;;;;;22.35;15.18;;;;;;;;;;7389872;19;20042;-60
2021/11/03 01:59:22;;;;;;;21.38;15.95;;;;;;;;;;7389850;19;20011;-61
2021/11/03 02:01:50;;;;;;;22.25;15.77;;;;;;;;;;7389200;19;20034;-61
2021/11/03 02:04:19;;;;;;;20.23;13.98;;;;;;;;;;7396435;19;20007;-61
2021/11/03 02:06:48;;;;;;;27.23;15.40;;;;;;;;;;7389855;19;20018;-61
2021/11/03 02:09:17;;;;;;;21.55;15.48;;;;;;;;;;7389344;19;20456;-60
2021/11/03 02:11:47;;;;;;;20.20;15.00;;;;;;;;;;7391394;19;20025;-61
2021/11/03 02:14:15;;;;;;;20.05;14.48;;;;;;;;;;7392943;19;20029;-61
2021/11/03 02:16:47;;;;;;;20.38;15.07;;;;;;;;;;7389090;19;20023;-61
2021/11/03 02:19:23;;;;;;;21.73;15.77;;;;;;;;;;7388978;19;20010;-60
2021/11/03 02:22:01;;;;;;;19.20;14.23;;;;;;;;;;7389551;19;20014;-61
2021/11/03 02:24:36;;;;;;;19.90;13.95;;;;;;;;;;7388971;19;20491;-61
2021/11/03 02:27:04;;;;;;;26.40;14.93;;;;;;;;;;7390781;19;20023;-61
2021/11/03 02:29:32;;;;;;;19.85;13.93;;;;;;;;;;7389586;19;20018;-61
2021/11/03 02:32:16;;;;;;;23.40;15.05;;;;;;;;;;7388768;19;20023;-61
2021/11/03 02:34:45;;;;;;;21.25;14.32;;;;;;;;;;7388541;19;20007;-61
2021/11/03 02:37:28;;;;;;;22.30;15.40;;;;;;;;;;7388591;19;20018;-61
2021/11/03 02:40:08;;;;;;;18.48;14.50;;;;;;;;;;7390312;19;20006;-61
2021/11/03 02:42:42;;;;;;;21.20;15.05;;;;;;;;;;7390831;19;20018;-61
2021/11/03 02:45:16;;;;;;;22.23;15.30;;;;;;;;;;7389742;19;20014;-60
2021/11/03 02:47:44;;;;;;;21.05;15.35;;;;;;;;;;7389700;19;20074;-61
2021/11/03 02:50:13;;;;;;;18.80;14.40;;;;;;;;;;7389744;19;20018;-61
2021/11/03 02:52:42;;;;;;;19.77;14.57;;;;;;;;;;7390322;19;20046;-60
2021/11/03 02:55:12;;;;;;;20.95;13.75;;;;;;;;;;7386789;19;20007;-61
2021/11/03 02:57:40;;;;;;;18.33;14.60;;;;;;;;;;7388205;19;20014;-61
2021/11/03 03:00:12;;;;;;;18.88;13.63;;;;;;;;;;7389347;19;20006;-60
2021/11/03 03:02:40;;;;;;;19.40;13.90;;;;;;;;;;7388012;19;20021;-61
2021/11/03 03:05:08;;;;;;;20.17;14.10;;;;;;;;;;7391476;19;20014;-63
2021/11/03 03:07:37;;;;;;;53.10;29.52;;;;;;;;;;7388218;19;20027;-61
2021/11/03 03:10:06;;;;;;;17.92;13.77;;;;;;;;;;7386881;19;20011;-61
2021/11/03 03:12:34;;;;;;;19.33;13.30;;;;;;;;;;7389761;19;20015;-61
2021/11/03 03:15:02;;;;;;;23.15;15.05;;;;;;;;;;7390165;19;20014;-60
2021/11/03 03:17:31;;;;;;;21.02;14.40;;;;;;;;;;7387615;19;20078;-62
2021/11/03 03:19:59;;;;;;;17.13;12.80;;;;;;;;;;7385909;19;20017;-61
2021/11/03 03:22:27;;;;;;;48.60;26.15;;;;;;;;;;7387491;19;20019;-62
2021/11/03 03:24:57;;;;;;;19.05;14.35;;;;;;;;;;7387667;19;20029;-61
2021/11/03 03:27:27;;;;;;;17.95;13.02;;;;;;;;;;7387698;19;20018;-61
2021/11/03 03:29:55;;;;;;;18.95;13.15;;;;;;;;;;7388596;19;20014;-60
2021/11/03 03:32:23;;;;;;;18.40;13.23;;;;;;;;;;7389613;19;20022;-61
2021/11/03 03:34:52;;;;;;;15.70;12.18;;;;;;;;;;7388006;19;20080;-61
2021/11/03 03:37:22;;;;;;;16.33;12.15;;;;;;;;;;7387156;19;20014;-60
2021/11/03 03:39:52;;;;;;;16.17;12.57;;;;;;;;;;7386849;19;20019;-60
2021/11/03 03:42:20;;;;;;;17.45;12.32;;;;;;;;;;7387037;19;20597;-60
2021/11/03 03:44:49;;;;;;;17.02;12.02;;;;;;;;;;7393293;19;20017;-61
2021/11/03 03:47:17;;;;;;;19.92;12.60;;;;;;;;;;7394126;19;20018;-61
2021/11/03 03:49:47;;;;;;;15.38;11.60;;;;;;;;;;7395495;19;20015;-61
2021/11/03 03:52:15;;;;;;;17.23;11.82;;;;;;;;;;7395445;19;20047;-61
2021/11/03 03:54:45;;;;;;;16.25;11.90;;;;;;;;;;7395389;19;20014;-61
2021/11/03 03:57:12;;;;;;;20.40;12.02;;;;;;;;;;7393888;19;20045;-60
2021/11/03 03:59:40;;;;;;;19.70;11.57;;;;;;;;;;7395543;19;20574;-61
2021/11/03 04:02:08;;;;;;;14.40;10.93;;;;;;;;;;7396023;19;20045;-61
2021/11/03 04:04:37;;;;;;;15.90;11.07;;;;;;;;;;7393620;19;20119;-61
2021/11/03 04:07:04;;;;;;;15.90;10.32;;;;;;;;;;7393449;19;20022;-61
2021/11/03 04:09:33;;;;;;;15.57;10.60;;;;;;;;;;7392710;19;20393;-61
2021/11/03 04:12:01;;;;;;;17.80;12.05;;;;;;;;;;7393421;19;20021;-60
2021/11/03 04:14:28;;;;;;;13.25;9.98;;;;;;;;;;7395174;19;20074;-62
2021/11/03 04:16:56;;;;;;;13.70;10.23;;;;;;;;;;7392902;19;20023;-61
2021/11/03 04:19:24;;;;;;;14.52;10.57;;;;;;;;;;7398223;19;20081;-61
2021/11/03 04:21:54;;;;;;;68.47;34.63;;;;;;;;;;7394176;19;20026;-61
2021/11/03 04:24:29;;;;;;;19.92;12.35;;;;;;;;;;7393382;19;20020;-61
2021/11/03 04:26:57;;;;;;;14.15;10.18;;;;;;;;;;7397216;19;20040;-61
2021/11/03 04:29:25;;;;;;;13.35;10.20;;;;;;;;;;7392376;19;20022;-61
2021/11/03 04:31:53;;;;;;;16.65;10.15;;;;;;;;;;7392892;19;20021;-60
2021/11/03 04:34:22;;;;;;;14.77;9.75;;;;;;;;;;7392899;19;20017;-61
2021/11/03 04:36:52;;;;;;;11.63;9.02;;;;;;;;;;7391162;19;20030;-60
2021/11/03 04:39:20;;;;;;;13.15;9.75;;;;;;;;;;7393006;19;20014;-61
2021/11/03 04:41:50;;;;;;;12.48;9.00;;;;;;;;;;7393468;19;20015;-61
2021/11/03 04:44:18;;;;;;;12.60;8.90;;;;;;;;;;7391985;19;20085;-61
2021/11/03 04:46:47;;;;;;;51.60;27.25;;;;;;;;;;7393676;19;20009;-61
2021/11/03 04:49:17;;;;;;;15.30;9.98;;;;;;;;;;7392602;19;20035;-61
2021/11/03 04:51:48;;;;;;;13.48;9.50;;;;;;;;;;7391518;19;20507;-61
2021/11/03 04:54:16;;;;;;;11.80;8.75;;;;;;;;;;7392246;19;20014;-61
2021/11/03 04:56:43;;;;;;;12.52;8.88;;;;;;;;;;7388802;19;20018;-61
2021/11/03 04:59:11;;;;;;;12.73;8.32;;;;;;;;;;7391233;19;20018;-61
2021/11/03 05:01:39;;;;;;;14.57;9.60;;;;;;;;;;7391648;19;20014;-60
2021/11/03 05:04:07;;;;;;;25.13;9.43;;;;;;;;;;7393461;19;20018;-60
2021/11/03 05:06:38;;;;;;;11.15;8.27;;;;;;;;;;7390860;19;20010;-62
2021/11/03 05:09:09;;;;;;;21.35;9.02;;;;;;;;;;7391577;19;20061;-61
2021/11/03 05:11:37;;;;;;;12.13;8.48;;;;;;;;;;7391765;19;20022;-61
2021/11/03 05:14:05;;;;;;;13.93;8.52;;;;;;;;;;7392662;19;20021;-61
2021/11/03 05:16:37;;;;;;;41.78;22.02;;;;;;;;;;7389448;19;20014;-60
2021/11/03 05:19:06;;;;;;;15.73;11.02;;;;;;;;;;7390999;19;20020;-61
2021/11/03 05:21:39;;;;;;;13.02;9.43;;;;;;;;;;7391400;19;20046;-60
2021/11/03 05:24:08;;;;;;;14.63;10.07;;;;;;;;;;7392181;19;20039;-60
2021/11/03 05:26:38;;;;;;;18.92;10.32;;;;;;;;;;7392669;19;20070;-61
2021/11/03 05:29:06;;;;;;;13.93;8.88;;;;;;;;;;7392668;19;20011;-59
2021/11/03 05:31:34;;;;;;;13.15;9.40;;;;;;;;;;7392597;19;20024;-61
2021/11/03 05:34:02;;;;;;;14.30;10.68;;;;;;;;;;7392448;19;20018;-57
2021/11/03 05:36:31;;;;;;;16.33;9.27;;;;;;;;;;7390789;19;20089;-61
2021/11/03 05:39:03;;;;;;;14.75;9.80;;;;;;;;;;7392526;19;20038;-61
2021/11/03 05:41:31;;;;;;;15.45;9.77;;;;;;;;;;7392161;19;20006;-60
2021/11/03 05:43:58;;;;;;;28.45;12.40;;;;;;;;;;7392270;19;20025;-61
2021/11/03 05:46:30;;;;;;;16.98;10.95;;;;;;;;;;7392137;19;20017;-61
2021/11/03 05:49:00;;;;;;;15.13;10.38;;;;;;;;;;7395183;19;20014;-61
2021/11/03 05:51:28;;;;;;;13.30;9.13;;;;;;;;;;7390555;19;20074;-61
2021/11/03 05:53:55;;;;;;;21.15;8.93;;;;;;;;;;7391985;19;20010;-60
2021/11/03 05:56:23;;;;;;;15.65;11.18;;;;;;;;;;7391099;19;20042;-61
2021/11/03 05:58:51;;;;;;;17.95;10.60;;;;;;;;;;7391877;19;20014;-61
2021/11/03 06:01:18;;;;;;;16.23;9.65;;;;;;;;;;7391866;19;20007;-59
2021/11/03 06:03:52;;;;;;;19.13;12.27;;;;;;;;;;7391935;19;20010;-60
2021/11/03 06:06:22;;;;;;;13.93;9.27;;;;;;;;;;7388674;19;20050;-61
2021/11/03 06:08:52;;;;;;;16.90;10.65;;;;;;;;;;7390645;19;20014;-60
2021/11/03 06:11:21;;;;;;;14.18;10.00;;;;;;;;;;7391370;19;20035;-61
2021/11/03 06:13:50;;;;;;;16.83;10.45;;;;;;;;;;7392391;19;20070;-61
2021/11/03 06:16:17;;;;;;;17.10;11.52;;;;;;;;;;7390371;19;20521;-59
2021/11/03 06:18:45;;;;;;;17.48;12.55;;;;;;;;;;7390816;19;20367;-61
2021/11/03 06:21:14;;;;;;;20.00;11.68;;;;;;;;;;7389678;19;20050;-60
2021/11/03 06:23:41;;;;;;;17.60;10.60;;;;;;;;;;7389694;19;20011;-61
2021/11/03 06:26:12;;;;;;;16.45;10.50;;;;;;;;;;7390783;19;20471;-60
2021/11/03 06:28:40;;;;;;;19.20;10.95;;;;;;;;;;7390047;19;20018;-62
2021/11/03 06:31:08;;;;;;;17.50;10.55;;;;;;;;;;7390351;19;20014;-60
2021/11/03 06:33:37;;;;;;;15.07;10.80;;;;;;;;;;7390704;19;20040;-61
2021/11/03 06:36:06;;;;;;;16.80;10.93;;;;;;;;;;7388869;19;20031;-61
2021/11/03 06:38:36;;;;;;;19.30;12.07;;;;;;;;;;7393522;19;20479;-60
2021/11/03 06:41:05;;;;;;;17.70;11.32;;;;;;;;;;7389950;19;20086;-60
2021/11/03 06:43:34;;;;;;;18.60;10.80;;;;;;;;;;7389530;19;20010;-60
2021/11/03 06:46:03;;;;;;;17.40;11.20;;;;;;;;;;7390391;19;20006;-60
2021/11/03 06:48:30;;;;;;;19.60;11.75;;;;;;;;;;7388444;19;20007;-60
2021/11/03 06:50:58;;;;;;;19.27;12.27;;;;;;;;;;7389042;19;20501;-60
2021/11/03 06:53:26;;;;;;;19.38;12.65;;;;;;;;;;7388652;19;20050;-60
2021/11/03 06:55:55;;;;;;;18.92;11.48;;;;;;;;;;7387293;19;20015;-60
2021/11/03 06:58:24;;;;;;;18.33;11.75;;;;;;;;;;7393255;19;20015;-60
2021/11/03 07:00:53;;;;;;;20.95;11.00;;;;;;;;;;7390632;19;20010;-60
2021/11/03 07:03:23;;;;;;;18.75;11.60;;;;;;;;;;7388875;19;20034;-60
2021/11/03 07:05:53;;;;;;;20.92;12.20;;;;;;;;;;7389326;19;20027;-60
2021/11/03 07:08:22;;;;;;;15.50;10.73;;;;;;;;;;7389453;19;20018;-60
2021/11/03 07:10:54;;;;;;;22.55;11.90;;;;;;;;;;7390399;19;20037;-60
2021/11/03 07:13:23;;;;;;;17.45;11.50;;;;;;;;;;7389414;19;20031;-60
2021/11/03 07:15:53;;;;;;;22.02;13.38;;;;;;;;;;7389303;19;20006;-60
2021/11/03 07:18:22;;;;;;;20.83;12.45;;;;;;;;;;7391999;19;20010;-60
2021/11/03 07:20:50;;;;;;;21.80;12.95;;;;;;;;;;7401314;19;20035;-60
2021/11/03 07:23:20;;;;;;;22.45;12.95;;;;;;;;;;7396602;19;20014;-61
2021/11/03 07:25:51;;;;;;;;;;;;;;;;;;7397207;19;20031;-61
2021/11/03 07:28:19;;;;;;;23.25;12.85;;;;;;;;;;7397042;19;20311;-60
2021/11/03 07:30:47;;;;;;;23.02;12.68;;;;;;;;;;7396634;19;20018;-60
2021/11/03 07:33:15;;;;;;;22.83;13.98;;;;;;;;;;7394193;19;20010;-60
2021/11/03 07:35:45;;;;;;;23.27;14.05;;;;;;;;;;7395668;19;20018;-60
2021/11/03 07:38:12;;;;;;;24.75;14.00;;;;;;;;;;7395786;19;20022;-60
2021/11/03 07:40:44;;;;;;;27.25;15.43;;;;;;;;;;7396374;19;20038;-60
2021/11/03 07:43:14;;;;;;;22.67;13.05;;;;;;;;;;7396089;19;20773;-60
2021/11/03 07:45:43;;;;;;;23.30;12.98;;;;;;;;;;7395895;19;20396;-60
2021/11/03 07:48:12;;;;;;;25.02;14.05;;;;;;;;;;7396348;19;20105;-61
2021/11/03 07:50:47;;;;;;;23.33;13.30;;;;;;;;;;7394922;19;20006;-60
2021/11/03 07:53:15;;;;;;;23.20;13.25;;;;;;;;;;7395270;19;20033;-60
2021/11/03 07:55:46;;;;;;;20.58;13.15;;;;;;;;;;7395645;19;20018;-60
2021/11/03 07:58:21;;;;;;;21.23;12.50;;;;;;;;;;7393794;19;20018;-60
2021/11/03 08:00:51;;;;;;;26.52;13.82;;;;;;;;;;7393381;19;20029;-60
2021/11/03 08:03:19;;;;;;;23.98;13.85;;;;;;;;;;7394408;19;20027;-60
2021/11/03 08:05:50;;;;;;;21.85;13.32;;;;;;;;;;7393549;19;20373;-60
2021/11/03 08:08:20;;;;;;;20.20;13.02;;;;;;;;;;7394698;19;20011;-60
2021/11/03 08:10:53;;;;;;;23.05;13.07;;;;;;;;;;7393705;19;20014;-60
2021/11/03 08:13:26;;;;;;;21.15;12.05;;;;;;;;;;7394837;19;20041;-60
2021/11/03 08:15:55;;;;;;;18.58;11.13;;;;;;;;;;7394262;19;20011;-60
2021/11/03 08:18:27;;;;;;;21.63;12.55;;;;;;;;;;7394894;19;20017;-60
2021/11/03 08:20:55;;;;;;;21.17;12.52;;;;;;;;;;7393702;19;20482;-60
2021/11/03 08:23:23;;;;;;;19.50;12.02;;;;;;;;;;7395383;19;20018;-60
2021/11/03 08:25:52;;;;;;;20.27;11.25;;;;;;;;;;7394564;19;20010;-60
2021/11/03 08:28:19;;;;;;;20.95;11.90;;;;;;;;;;7393841;19;20034;-60
2021/11/03 08:30:50;;;;;;;20.25;11.30;;;;;;;;;;7391419;19;20010;-60
2021/11/03 08:33:25;;;;;;;20.92;10.98;;;;;;;;;;7393926;19;20017;-60
2021/11/03 08:35:54;;;;;;;18.27;10.75;;;;;;;;;;7392882;19;20370;-60
2021/11/03 08:38:43;;;;;;;20.23;10.32;;;;;;;;;;7394232;19;20014;-60
2021/11/03 08:41:10;;;;;;;17.92;10.57;;;;;;;;;;7394296;19;20003;-61
2021/11/03 08:43:41;;;;;;;20.30;11.85;;;;;;;;;;7394229;19;20010;-60
2021/11/03 08:46:10;;;;;;;19.42;11.75;;;;;;;;;;7393746;19;20010;-60
2021/11/03 08:48:55;;;;;;;23.02;11.98;;;;;;;;;;7393376;19;20007;-60
2021/11/03 08:51:28;;;;;;;19.88;11.00;;;;;;;;;;7392239;19;20014;-60
2021/11/03 08:53:56;;;;;;;19.17;12.07;;;;;;;;;;7393120;19;20027;-60
2021/11/03 08:56:25;;;;;;;22.40;12.02;;;;;;;;;;7392887;19;20026;-60
2021/11/03 08:58:54;;;;;;;29.83;12.85;;;;;;;;;;7393829;19;20011;-60
2021/11/03 09:01:23;;;;;;;18.98;11.82;;;;;;;;;;7395127;19;20471;-60
2021/11/03 09:03:51;;;;;;;18.13;11.02;;;;;;;;;;7395827;19;20039;-61
2021/11/03 09:06:19;;;;;;;20.20;11.52;;;;;;;;;;7393291;19;20026;-60
2021/11/03 09:08:50;;;;;;;18.23;10.63;;;;;;;;;;7392590;19;20078;-60
2021/11/03 09:11:19;;;;;;;22.13;11.30;;;;;;;;;;7392952;19;20472;-60
2021/11/03 09:13:48;;;;;;;18.63;10.60;;;;;;;;;;7393625;19;20021;-60
2021/11/03 09:16:17;;;;;;;22.88;12.50;;;;;;;;;;7392432;19;20054;-60
2021/11/03 09:18:45;;;;;;;24.42;11.10;;;;;;;;;;7392418;19;20011;-60
2021/11/03 09:21:14;;;;;;;18.52;11.20;;;;;;;;;;7392353;19;20491;-60
2021/11/03 09:23:44;;;;;;;21.48;11.52;;;;;;;;;;7392764;19;20380;-60
2021/11/03 09:26:14;;;;;;;18.80;11.38;;;;;;;;;;7392445;19;20511;-60
2021/11/03 09:28:41;;;;;;;19.95;10.02;;;;;;;;;;7392317;19;20015;-60
2021/11/03 09:31:09;;;;;;;18.08;10.68;;;;;;;;;;7392279;19;20022;-60
2021/11/03 09:33:39;;;;;;;19.75;10.13;;;;;;;;;;7392371;19;20077;-60
2021/11/03 09:36:11;;;;;;;19.02;11.38;;;;;;;;;;7391101;19;20011;-60
2021/11/03 09:38:39;;;;;;;20.50;11.20;;;;;;;;;;7392272;19;20010;-60
2021/11/03 09:41:20;;;;;;;21.10;11.40;;;;;;;;;;7390525;19;20487;-60
2021/11/03 09:43:58;;;;;;;21.48;10.55;;;;;;;;;;7392168;19;20479;-60
2021/11/03 09:46:38;;;;;;;19.13;10.25;;;;;;;;;;7391100;19;20014;-60
2021/11/03 09:49:10;;;;;;;19.92;11.50;;;;;;;;;;7395407;19;20014;-60
2021/11/03 09:51:44;;;;;;;20.03;11.20;;;;;;;;;;7389646;19;20546;-60
2021/11/03 09:54:21;;;;;;;17.13;10.73;;;;;;;;;;7391374;19;20047;-60
2021/11/03 09:57:15;;;;;;;16.65;9.77;;;;;;;;;;7390289;19;20010;-60
2021/11/03 09:59:58;;;;;;;23.45;10.95;;;;;;;;;;7389952;19;20003;-60
2021/11/03 10:02:53;;;;;;;19.67;11.20;;;;;;;;;;7390912;19;20014;-60
2021/11/03 10:05:24;;;;;;;25.23;11.18;;;;;;;;;;7390679;19;20091;-60
2021/11/03 10:08:00;;;;;;;20.70;10.70;;;;;;;;;;7391567;19;20018;-60
2021/11/03 10:10:41;;;;;;;21.67;11.30;;;;;;;;;;7389799;19;20018;-60
2021/11/03 10:13:20;;;;;;;21.50;10.57;;;;;;;;;;7390462;19;20010;-61
2021/11/03 10:16:22;;;;;;;20.92;11.80;;;;;;;;;;7390282;19;20014;-60
2021/11/03 10:18:58;;;;;;;19.27;10.40;;;;;;;;;;7391250;19;20006;-61
2021/11/03 10:21:32;;;;;;;28.80;12.20;;;;;;;;;;7390793;19;20015;-60
2021/11/03 10:24:05;;;;;;;22.13;11.57;;;;;;;;;;7390570;19;20471;-60
2021/11/03 10:26:57;;;;;;;23.42;12.05;;;;;;;;;;7390921;19;20014;-60
2021/11/03 10:29:40;;;;;;;26.70;12.40;;;;;;;;;;7390931;19;20074;-60
2021/11/03 10:32:08;;;;;;;23.88;12.68;;;;;;;;;;7389310;19;20101;-60
2021/11/03 10:34:36;;;;;;;21.85;11.95;;;;;;;;;;7390207;19;20014;-61
2021/11/03 10:37:10;;;;;;;29.63;13.18;;;;;;;;;;7387480;19;20021;-60
2021/11/03 10:39:59;;;;;;;23.98;12.25;;;;;;;;;;7388875;19;20018;-60
2021/11/03 10:42:34;;;;;;;25.27;11.85;;;;;;;;;;7390152;19;20010;-60
2021/11/03 10:45:20;;;;;;;29.65;14.05;;;;;;;;;;7390213;19;20029;-60
2021/11/03 10:47:52;;;;;;;26.00;12.13;;;;;;;;;;7390828;19;20021;-61
2021/11/03 10:50:42;;;;;;;27.10;12.40;;;;;;;;;;7389218;19;20018;-60
2021/11/03 10:53:22;;;;;;;34.60;14.63;;;;;;;;;;7392632;19;20053;-60
2021/11/03 10:56:06;;;;;;;35.50;14.77;;;;;;;;;;7397435;19;20022;-60
2021/11/03 10:58:50;;;;;;;30.00;14.15;;;;;;;;;;7394771;19;20082;-60
2021/11/03 11:01:24;;;;;;;33.72;13.77;;;;;;;;;;7397531;19;20019;-60
2021/11/03 11:04:04;;;;;;;35.65;14.85;;;;;;;;;;7398854;19;20016;-60
2021/11/03 11:06:38;;;;;;;31.20;14.40;;;;;;;;;;7396872;19;20022;-60
2021/11/03 11:09:08;;;;;;;32.28;15.15;;;;;;;;;;7397357;19;20058;-60
2021/11/03 11:11:39;;;;;;;28.58;13.98;;;;;;;;;;7396520;19;20015;-60
2021/11/03 11:14:19;;;;;;;35.97;13.95;;;;;;;;;;7397328;19;20014;-60
2021/11/03 11:16:54;;;;;;;33.83;13.80;;;;;;;;;;7396101;19;20010;-60
2021/11/03 11:19:35;;;;;;;30.75;13.65;;;;;;;;;;7397861;19;20022;-60
2021/11/03 11:22:12;;;;;;;28.50;13.65;;;;;;;;;;7396969;19;20483;-60
2021/11/03 11:25:11;;;;;;;23.52;12.57;;;;;;;;;;7396490;19;20015;-60
2021/11/03 11:27:59;;;;;;;29.30;14.32;;;;;;;;;;7396271;19;20132;-60
2021/11/03 11:30:46;;;;;;;35.10;15.55;;;;;;;;;;7396925;19;20003;-60
2021/11/03 11:33:28;;;;;;;26.08;13.20;;;;;;;;;;7396278;19;20022;-60
2021/11/03 11:36:16;;;;;;;29.40;14.13;;;;;;;;;;7397624;19;20011;-60
2021/11/03 11:39:11;;;;;;;23.98;13.13;;;;;;;;;;7393181;19;20019;-60
2021/11/03 11:42:37;;;;;;;24.90;14.85;;;;;;;;;;7396803;19;20034;-61
2021/11/03 11:45:21;;;;;;;22.27;13.27;;;;;;;;;;7393904;19;20077;-60
2021/11/03 11:47:54;;;;;;;;;;;;;;;;;;7396622;19;20019;-60
2021/11/03 11:50:35;;;;;;;21.73;12.55;;;;;;;;;;7395619;19;19922;-60
2021/11/03 11:53:17;;;;;;;21.15;11.23;;;;;;;;;;7395898;19;20101;-61
2021/11/03 11:56:10;;;;;;;21.75;12.73;;;;;;;;;;7395611;19;20028;-60
2021/11/03 11:58:40;;;;;;;23.23;13.50;;;;;;;;;;7393307;19;20011;-60
2021/11/03 12:01:13;;;;;;;26.80;15.50;;;;;;;;;;7395363;19;20006;-60
2021/11/03 12:04:13;;;;;;;;;;;;;;;;;;7394430;19;20031;-60
2021/11/03 12:06:44;;;;;;;18.83;11.60;;;;;;;;;;7395298;19;20327;-60
2021/11/03 12:09:51;;;;;;;30.38;14.85;;;;;;;;;;7393413;19;20018;-60
2021/11/03 12:12:23;;;;;;;32.20;14.80;;;;;;;;;;7395366;19;20020;-60
2021/11/03 12:14:56;;;;;;;29.50;14.38;;;;;;;;;;7398449;19;20490;-60
2021/11/03 12:17:56;;;;;;;24.37;12.47;;;;;;;;;;7394330;19;20023;-60
2021/11/03 12:20:26;;;;;;;27.30;13.65;;;;;;;;;;7394796;19;20011;-60
2021/11/03 12:23:00;;;;;;;30.83;14.35;;;;;;;;;;7392778;19;20014;-60
2021/11/03 12:25:30;;;;;;;;;;;;;;;;;;7395684;19;20082;-61
2021/11/03 12:28:10;;;;;;;29.60;15.10;;;;;;;;;;7394768;19;19923;-60
2021/11/03 12:30:57;;;;;;;26.77;14.07;;;;;;;;;;7394058;19;20011;-60
2021/11/03 12:33:25;;;;;;;27.60;15.32;;;;;;;;;;7394188;19;20014;-60
2021/11/03 12:36:11;;;;;;;22.38;12.73;;;;;;;;;;7395211;19;20906;-60
2021/11/03 12:38:47;;;;;;;25.73;13.75;;;;;;;;;;7392625;19;20011;-60
2021/11/03 12:41:21;;;;;;;28.85;14.52;;;;;;;;;;7394682;19;20101;-60
2021/11/03 12:43:52;;;;;;;26.25;14.13;;;;;;;;;;7394076;19;20021;-60
2021/11/03 12:46:20;;;;;;;29.48;13.95;;;;;;;;;;7394663;19;20011;-60
2021/11/03 12:49:00;;;;;;;25.50;14.98;;;;;;;;;;7393873;19;20491;-60
2021/11/03 12:51:32;;;;;;;25.83;12.95;;;;;;;;;;7392100;19;20023;-60
2021/11/03 12:54:28;;;;;;;21.27;12.63;;;;;;;;;;7394126;19;20014;-60
2021/11/03 12:57:05;;;;;;;21.83;12.70;;;;;;;;;;7392771;19;20010;-61
2021/11/03 12:59:35;;;;;;;166.35;75.72;;;;;;;;;;7393626;19;20486;-60
2021/11/03 13:02:16;;;;;;;35.55;19.05;;;;;;;;;;7393055;19;20495;-60
2021/11/03 13:04:51;;;;;;;24.00;13.93;;;;;;;;;;7396023;19;20010;-62
2021/11/03 13:07:29;;;;;;;20.27;11.68;;;;;;;;;;7393206;19;20074;-62
2021/11/03 13:10:23;;;;;;;23.38;11.88;;;;;;;;;;7393442;19;20013;-60
2021/11/03 13:13:21;;;;;;;15.10;9.37;;;;;;;;;;7392069;19;20010;-59
2021/11/03 13:16:03;;;;;;;21.67;11.30;;;;;;;;;;7390432;19;20011;-60
2021/11/03 13:18:36;;;;;;;16.13;10.13;;;;;;;;;;7392670;19;20028;-61
2021/11/03 13:21:26;;;;;;;19.92;10.88;;;;;;;;;;7392470;19;20604;-61
2021/11/03 13:24:27;;;;;;;13.45;7.88;;;;;;;;;;7393356;19;20015;-60
2021/11/03 13:27:03;;;;;;;14.48;9.07;;;;;;;;;;7391683;19;20484;-60
2021/11/03 13:29:35;;;;;;;12.43;7.85;;;;;;;;;;7392942;19;20089;-61
2021/11/03 13:32:32;;;;;;;11.57;7.07;;;;;;;;;;7391783;19;20015;-61
2021/11/03 13:35:07;;;;;;;13.43;7.88;;;;;;;;;;7391670;19;20093;-61
2021/11/03 13:37:44;;;;;;;11.50;7.03;;;;;;;;;;7392437;19;20035;-60
2021/11/03 13:40:19;;;;;;;13.90;7.68;;;;;;;;;;7391982;19;20011;-60
2021/11/03 13:42:55;;;;;;;11.30;7.70;;;;;;;;;;7392744;19;20014;-60
2021/11/03 13:45:29;;;;;;;8.18;5.30;;;;;;;;;;7394337;19;20092;-51
2021/11/03 13:48:09;;;;;;;37.38;16.63;;;;;;;;;;7391273;19;20039;-60
2021/11/03 13:50:49;;;;;;;12.73;7.78;;;;;;;;;;7391192;19;20014;-60
2021/11/03 13:53:20;;;;;;;11.57;5.97;;;;;;;;;;7392026;19;20020;-60
2021/11/03 13:56:09;;;;;;;10.63;5.88;;;;;;;;;;7391289;19;20022;-60
2021/11/03 13:58:42;;;;;;;10.30;6.20;;;;;;;;;;7390150;19;20010;-60
2021/11/03 14:01:13;;;;;;;9.77;5.95;;;;;;;;;;7391514;19;20002;-59
2021/11/03 14:03:58;;;;;;;10.40;6.43;;;;;;;;;;7391584;19;20034;-61
2021/11/03 14:06:33;;;;;;;9.23;5.70;;;;;;;;;;7390501;19;20035;-60
2021/11/03 14:09:17;;;;;;;11.68;6.05;;;;;;;;;;7391389;19;20010;-60
2021/11/03 14:11:47;;;;;;;8.32;5.03;;;;;;;;;;7391630;19;20015;-60
2021/11/03 14:14:17;;;;;;;9.70;5.82;;;;;;;;;;7393681;19;20033;-60
2021/11/03 14:17:13;;;;;;;8.75;5.68;;;;;;;;;;7391187;19;20013;-60
2021/11/03 14:19:50;;;;;;;41.47;15.35;;;;;;;;;;7389565;19;20006;-60
2021/11/03 14:22:21;;;;;;;16.25;9.82;;;;;;;;;;7390998;19;20015;-60
2021/11/03 14:24:58;;;;;;;13.57;6.15;;;;;;;;;;7391083;19;20010;-60
2021/11/03 14:27:31;;;;;;;9.50;6.18;;;;;;;;;;7389914;19;20011;-60
2021/11/03 14:29:59;;;;;;;8.77;5.03;;;;;;;;;;7390275;19;20030;-61
2021/11/03 14:32:28;;;;;;;7.55;5.07;;;;;;;;;;7390641;19;20021;-60
2021/11/03 14:34:59;;;;;;;6.78;3.72;;;;;;;;;;7390588;19;20033;-60
2021/11/03 14:37:27;;;;;;;8.13;4.45;;;;;;;;;;7390540;19;20094;-60
2021/11/03 14:39:54;;;;;;;7.90;5.07;;;;;;;;;;7390022;19;20018;-61
2021/11/03 14:42:23;;;;;;;7.88;4.38;;;;;;;;;;7389631;19;20010;-60
2021/11/03 14:44:53;;;;;;;8.25;5.28;;;;;;;;;;7390512;19;20520;-60
2021/11/03 14:47:28;;;;;;;90.22;38.10;;;;;;;;;;7390639;19;20014;-62
2021/11/03 14:50:21;;;;;;;22.05;11.20;;;;;;;;;;7394619;19;20035;-60
2021/11/03 14:52:52;;;;;;;9.35;5.80;;;;;;;;;;7389496;19;20006;-60
2021/11/03 14:55:28;;;;;;;7.63;4.75;;;;;;;;;;7389795;19;20090;-60